sensor_id;sensor_type;location;lat;lon;timestamp;P1;durP1;ratioP1;P2;durP2;ratioP2
35324;SDS011;35135;47.510;19.036;2024-03-02T00:00:02;10.80;;;9.50;;
35324;SDS011;35135;47.510;19.036;2024-03-02T00:02:44;10.63;;;9.52;;
35324;SDS011;35135;47.510;19.036;2024-03-02T00:05:11;11.27;;;9.90;;
35324;SDS011;35135;47.510;19.036;2024-03-02T00:07:37;10.07;;;8.98;;
35324;SDS011;35135;47.510;19.036;2024-03-02T00:10:08;10.27;;;9.25;;
35324;SDS011;35135;47.510;19.036;2024-03-02T00:12:38;10.85;;;9.80;;
35324;SDS011;35135;47.510;19.036;2024-03-02T00:15:05;10.68;;;9.55;;
35324;SDS011;35135;47.510;19.036;2024-03-02T00:17:48;9.95;;;8.95;;
35324;SDS011;35135;47.510;19.036;2024-03-02T00:20:24;11.73;;;10.23;;
35324;SDS011;35135;47.510;19.036;2024-03-02T00:22:59;10.93;;;9.82;;
35324;SDS011;35135;47.510;19.036;2024-03-02T00:25:40;11.15;;;10.00;;
35324;SDS011;35135;47.510;19.036;2024-03-02T00:28:13;10.32;;;9.32;;
35324;SDS011;35135;47.510;19.036;2024-03-02T00:33:18;10.35;;;9.27;;
35324;SDS011;35135;47.510;19.036;2024-03-02T00:35:45;10.07;;;9.00;;
35324;SDS011;35135;47.510;19.036;2024-03-02T00:38:10;11.40;;;9.93;;
35324;SDS011;35135;47.510;19.036;2024-03-02T00:40:37;10.48;;;9.38;;
35324;SDS011;35135;47.510;19.036;2024-03-02T00:43:03;10.57;;;9.48;;
35324;SDS011;35135;47.510;19.036;2024-03-02T00:45:29;10.23;;;9.00;;
35324;SDS011;35135;47.510;19.036;2024-03-02T00:47:55;10.40;;;9.40;;
35324;SDS011;35135;47.510;19.036;2024-03-02T00:50:21;11.15;;;10.13;;
35324;SDS011;35135;47.510;19.036;2024-03-02T00:52:46;10.50;;;9.50;;
35324;SDS011;35135;47.510;19.036;2024-03-02T00:55:13;10.85;;;9.68;;
35324;SDS011;35135;47.510;19.036;2024-03-02T00:57:39;10.93;;;9.48;;
35324;SDS011;35135;47.510;19.036;2024-03-02T01:00:05;10.23;;;9.23;;
35324;SDS011;35135;47.510;19.036;2024-03-02T01:02:35;11.60;;;9.63;;
35324;SDS011;35135;47.510;19.036;2024-03-02T01:05:01;10.68;;;9.25;;
35324;SDS011;35135;47.510;19.036;2024-03-02T01:07:26;10.30;;;9.40;;
35324;SDS011;35135;47.510;19.036;2024-03-02T01:09:52;12.32;;;10.35;;
35324;SDS011;35135;47.510;19.036;2024-03-02T01:12:18;10.57;;;8.95;;
35324;SDS011;35135;47.510;19.036;2024-03-02T01:14:43;10.77;;;9.77;;
35324;SDS011;35135;47.510;19.036;2024-03-02T01:17:09;11.05;;;9.95;;
35324;SDS011;35135;47.510;19.036;2024-03-02T01:19:35;11.32;;;10.15;;
35324;SDS011;35135;47.510;19.036;2024-03-02T01:22:00;10.68;;;9.57;;
35324;SDS011;35135;47.510;19.036;2024-03-02T01:24:26;11.18;;;10.07;;
35324;SDS011;35135;47.510;19.036;2024-03-02T01:26:52;10.75;;;9.65;;
35324;SDS011;35135;47.510;19.036;2024-03-02T01:29:17;11.15;;;9.73;;
35324;SDS011;35135;47.510;19.036;2024-03-02T01:31:43;10.48;;;9.48;;
35324;SDS011;35135;47.510;19.036;2024-03-02T01:34:09;11.30;;;10.20;;
35324;SDS011;35135;47.510;19.036;2024-03-02T01:36:34;10.85;;;9.73;;
35324;SDS011;35135;47.510;19.036;2024-03-02T01:39:00;10.32;;;9.30;;
35324;SDS011;35135;47.510;19.036;2024-03-02T01:41:26;9.52;;;8.60;;
35324;SDS011;35135;47.510;19.036;2024-03-02T01:43:51;10.68;;;9.68;;
35324;SDS011;35135;47.510;19.036;2024-03-02T01:46:17;10.50;;;9.43;;
35324;SDS011;35135;47.510;19.036;2024-03-02T01:48:42;9.82;;;8.88;;
35324;SDS011;35135;47.510;19.036;2024-03-02T01:51:08;10.80;;;9.68;;
35324;SDS011;35135;47.510;19.036;2024-03-02T01:53:35;10.52;;;9.48;;
35324;SDS011;35135;47.510;19.036;2024-03-02T01:56:01;10.45;;;9.45;;
35324;SDS011;35135;47.510;19.036;2024-03-02T01:58:27;11.77;;;10.57;;
35324;SDS011;35135;47.510;19.036;2024-03-02T02:00:53;11.45;;;10.23;;
35324;SDS011;35135;47.510;19.036;2024-03-02T02:03:19;11.20;;;10.10;;
35324;SDS011;35135;47.510;19.036;2024-03-02T02:05:44;10.30;;;9.30;;
35324;SDS011;35135;47.510;19.036;2024-03-02T02:08:29;10.57;;;9.57;;
35324;SDS011;35135;47.510;19.036;2024-03-02T02:10:55;10.40;;;9.32;;
35324;SDS011;35135;47.510;19.036;2024-03-02T02:13:20;10.18;;;9.18;;
35324;SDS011;35135;47.510;19.036;2024-03-02T02:15:46;11.10;;;10.00;;
35324;SDS011;35135;47.510;19.036;2024-03-02T02:18:12;10.95;;;9.85;;
35324;SDS011;35135;47.510;19.036;2024-03-02T02:20:37;10.80;;;9.80;;
35324;SDS011;35135;47.510;19.036;2024-03-02T02:23:03;10.48;;;9.40;;
35324;SDS011;35135;47.510;19.036;2024-03-02T02:25:30;10.55;;;9.40;;
35324;SDS011;35135;47.510;19.036;2024-03-02T02:27:56;10.52;;;9.48;;
35324;SDS011;35135;47.510;19.036;2024-03-02T02:30:23;12.07;;;9.35;;
35324;SDS011;35135;47.510;19.036;2024-03-02T02:32:50;9.95;;;9.05;;
35324;SDS011;35135;47.510;19.036;2024-03-02T02:35:16;10.68;;;9.73;;
35324;SDS011;35135;47.510;19.036;2024-03-02T02:37:42;10.00;;;9.00;;
35324;SDS011;35135;47.510;19.036;2024-03-02T02:40:09;10.90;;;9.73;;
35324;SDS011;35135;47.510;19.036;2024-03-02T02:42:35;10.95;;;9.52;;
35324;SDS011;35135;47.510;19.036;2024-03-02T02:45:00;10.38;;;9.30;;
35324;SDS011;35135;47.510;19.036;2024-03-02T02:47:26;10.40;;;9.40;;
35324;SDS011;35135;47.510;19.036;2024-03-02T02:49:53;10.82;;;9.70;;
35324;SDS011;35135;47.510;19.036;2024-03-02T02:52:19;10.57;;;9.57;;
35324;SDS011;35135;47.510;19.036;2024-03-02T02:54:46;10.63;;;9.45;;
35324;SDS011;35135;47.510;19.036;2024-03-02T02:57:12;9.70;;;8.70;;
35324;SDS011;35135;47.510;19.036;2024-03-02T02:59:37;10.27;;;9.27;;
35324;SDS011;35135;47.510;19.036;2024-03-02T03:02:03;11.05;;;9.90;;
35324;SDS011;35135;47.510;19.036;2024-03-02T03:04:29;11.23;;;9.63;;
35324;SDS011;35135;47.510;19.036;2024-03-02T03:06:54;10.27;;;9.30;;
35324;SDS011;35135;47.510;19.036;2024-03-02T03:09:20;11.02;;;9.88;;
35324;SDS011;35135;47.510;19.036;2024-03-02T03:11:45;10.95;;;9.95;;
35324;SDS011;35135;47.510;19.036;2024-03-02T03:14:11;10.25;;;9.25;;
35324;SDS011;35135;47.510;19.036;2024-03-02T03:16:37;10.65;;;9.65;;
35324;SDS011;35135;47.510;19.036;2024-03-02T03:19:03;10.88;;;9.77;;
35324;SDS011;35135;47.510;19.036;2024-03-02T03:21:28;9.88;;;8.98;;
35324;SDS011;35135;47.510;19.036;2024-03-02T03:23:54;10.82;;;9.77;;
35324;SDS011;35135;47.510;19.036;2024-03-02T03:26:20;10.00;;;9.10;;
35324;SDS011;35135;47.510;19.036;2024-03-02T03:28:46;11.15;;;10.15;;
35324;SDS011;35135;47.510;19.036;2024-03-02T03:31:11;10.95;;;9.95;;
35324;SDS011;35135;47.510;19.036;2024-03-02T03:33:37;10.90;;;9.80;;
35324;SDS011;35135;47.510;19.036;2024-03-02T03:36:03;10.75;;;9.65;;
35324;SDS011;35135;47.510;19.036;2024-03-02T03:38:29;11.00;;;9.40;;
35324;SDS011;35135;47.510;19.036;2024-03-02T03:40:55;10.25;;;8.57;;
35324;SDS011;35135;47.510;19.036;2024-03-02T03:43:21;10.85;;;9.75;;
35324;SDS011;35135;47.510;19.036;2024-03-02T03:45:46;10.75;;;9.65;;
35324;SDS011;35135;47.510;19.036;2024-03-02T03:48:12;10.25;;;9.23;;
35324;SDS011;35135;47.510;19.036;2024-03-02T03:50:37;10.27;;;9.20;;
35324;SDS011;35135;47.510;19.036;2024-03-02T03:53:03;9.98;;;8.98;;
35324;SDS011;35135;47.510;19.036;2024-03-02T03:55:29;10.55;;;9.48;;
35324;SDS011;35135;47.510;19.036;2024-03-02T03:57:54;10.23;;;9.23;;
35324;SDS011;35135;47.510;19.036;2024-03-02T04:00:20;10.85;;;9.82;;
35324;SDS011;35135;47.510;19.036;2024-03-02T04:02:46;10.68;;;9.63;;
35324;SDS011;35135;47.510;19.036;2024-03-02T04:05:11;11.07;;;10.00;;
35324;SDS011;35135;47.510;19.036;2024-03-02T04:07:37;11.00;;;9.90;;
35324;SDS011;35135;47.510;19.036;2024-03-02T04:10:08;10.88;;;9.88;;
35324;SDS011;35135;47.510;19.036;2024-03-02T04:12:38;10.80;;;9.80;;
35324;SDS011;35135;47.510;19.036;2024-03-02T04:15:04;10.73;;;9.68;;
35324;SDS011;35135;47.510;19.036;2024-03-02T04:17:31;10.25;;;9.25;;
35324;SDS011;35135;47.510;19.036;2024-03-02T04:19:58;10.43;;;9.43;;
35324;SDS011;35135;47.510;19.036;2024-03-02T04:22:25;10.60;;;9.50;;
35324;SDS011;35135;47.510;19.036;2024-03-02T04:24:51;10.80;;;9.57;;
35324;SDS011;35135;47.510;19.036;2024-03-02T04:27:17;10.23;;;9.23;;
35324;SDS011;35135;47.510;19.036;2024-03-02T04:29:42;9.70;;;8.80;;
35324;SDS011;35135;47.510;19.036;2024-03-02T04:32:08;10.90;;;9.80;;
35324;SDS011;35135;47.510;19.036;2024-03-02T04:34:34;10.25;;;9.25;;
35324;SDS011;35135;47.510;19.036;2024-03-02T04:37:00;10.50;;;9.45;;
35324;SDS011;35135;47.510;19.036;2024-03-02T04:39:25;10.85;;;9.75;;
35324;SDS011;35135;47.510;19.036;2024-03-02T04:41:51;11.00;;;9.90;;
35324;SDS011;35135;47.510;19.036;2024-03-02T04:44:17;10.38;;;9.38;;
35324;SDS011;35135;47.510;19.036;2024-03-02T04:46:42;12.27;;;10.32;;
35324;SDS011;35135;47.510;19.036;2024-03-02T04:49:08;10.18;;;9.18;;
35324;SDS011;35135;47.510;19.036;2024-03-02T04:51:33;10.25;;;9.25;;
35324;SDS011;35135;47.510;19.036;2024-03-02T04:53:59;10.85;;;9.75;;
35324;SDS011;35135;47.510;19.036;2024-03-02T04:56:25;10.07;;;9.07;;
35324;SDS011;35135;47.510;19.036;2024-03-02T04:58:56;11.15;;;10.05;;
35324;SDS011;35135;47.510;19.036;2024-03-02T05:01:22;10.82;;;9.80;;
35324;SDS011;35135;47.510;19.036;2024-03-02T05:03:47;10.73;;;9.73;;
35324;SDS011;35135;47.510;19.036;2024-03-02T05:06:13;10.75;;;9.68;;
35324;SDS011;35135;47.510;19.036;2024-03-02T05:08:39;11.18;;;10.10;;
35324;SDS011;35135;47.510;19.036;2024-03-02T05:11:04;9.73;;;8.73;;
35324;SDS011;35135;47.510;19.036;2024-03-02T05:13:49;10.90;;;9.80;;
35324;SDS011;35135;47.510;19.036;2024-03-02T05:16:14;10.05;;;9.10;;
35324;SDS011;35135;47.510;19.036;2024-03-02T05:18:40;10.13;;;9.10;;
35324;SDS011;35135;47.510;19.036;2024-03-02T05:21:06;10.10;;;9.20;;
35324;SDS011;35135;47.510;19.036;2024-03-02T05:23:31;10.50;;;9.43;;
35324;SDS011;35135;47.510;19.036;2024-03-02T05:25:57;10.07;;;9.07;;
35324;SDS011;35135;47.510;19.036;2024-03-02T05:28:22;10.30;;;9.30;;
35324;SDS011;35135;47.510;19.036;2024-03-02T05:30:48;10.23;;;9.18;;
35324;SDS011;35135;47.510;19.036;2024-03-02T05:33:14;10.00;;;9.10;;
35324;SDS011;35135;47.510;19.036;2024-03-02T05:35:40;9.63;;;8.70;;
35324;SDS011;35135;47.510;19.036;2024-03-02T05:38:05;10.27;;;9.10;;
35324;SDS011;35135;47.510;19.036;2024-03-02T05:40:31;10.02;;;9.02;;
35324;SDS011;35135;47.510;19.036;2024-03-02T05:42:57;10.32;;;9.32;;
35324;SDS011;35135;47.510;19.036;2024-03-02T05:45:22;10.25;;;9.27;;
35324;SDS011;35135;47.510;19.036;2024-03-02T05:47:48;9.57;;;8.68;;
35324;SDS011;35135;47.510;19.036;2024-03-02T05:50:14;10.32;;;9.40;;
35324;SDS011;35135;47.510;19.036;2024-03-02T05:52:39;10.55;;;9.45;;
35324;SDS011;35135;47.510;19.036;2024-03-02T05:55:05;10.18;;;9.18;;
35324;SDS011;35135;47.510;19.036;2024-03-02T05:57:31;9.90;;;8.90;;
35324;SDS011;35135;47.510;19.036;2024-03-02T06:00:09;9.80;;;8.90;;
35324;SDS011;35135;47.510;19.036;2024-03-02T06:02:39;9.68;;;8.75;;
35324;SDS011;35135;47.510;19.036;2024-03-02T06:05:05;10.23;;;9.27;;
35324;SDS011;35135;47.510;19.036;2024-03-02T06:07:32;9.73;;;8.82;;
35324;SDS011;35135;47.510;19.036;2024-03-02T06:09:58;9.52;;;8.57;;
35324;SDS011;35135;47.510;19.036;2024-03-02T06:12:23;9.82;;;8.93;;
35324;SDS011;35135;47.510;19.036;2024-03-02T06:14:49;10.20;;;8.70;;
35324;SDS011;35135;47.510;19.036;2024-03-02T06:17:15;11.75;;;9.30;;
35324;SDS011;35135;47.510;19.036;2024-03-02T06:19:40;9.77;;;8.77;;
35324;SDS011;35135;47.510;19.036;2024-03-02T06:22:06;10.18;;;9.18;;
35324;SDS011;35135;47.510;19.036;2024-03-02T06:24:35;10.10;;;9.00;;
35324;SDS011;35135;47.510;19.036;2024-03-02T06:27:01;10.38;;;9.38;;
35324;SDS011;35135;47.510;19.036;2024-03-02T06:29:27;10.00;;;9.00;;
35324;SDS011;35135;47.510;19.036;2024-03-02T06:31:53;10.55;;;9.07;;
35324;SDS011;35135;47.510;19.036;2024-03-02T06:34:18;17.27;;;9.02;;
35324;SDS011;35135;47.510;19.036;2024-03-02T06:36:44;10.18;;;9.18;;
35324;SDS011;35135;47.510;19.036;2024-03-02T06:39:09;11.93;;;9.27;;
35324;SDS011;35135;47.510;19.036;2024-03-02T06:41:36;10.23;;;9.23;;
35324;SDS011;35135;47.510;19.036;2024-03-02T06:44:02;9.73;;;8.63;;
35324;SDS011;35135;47.510;19.036;2024-03-02T06:46:28;10.32;;;8.48;;
35324;SDS011;35135;47.510;19.036;2024-03-02T06:48:54;9.70;;;8.80;;
35324;SDS011;35135;47.510;19.036;2024-03-02T06:51:20;9.98;;;8.90;;
35324;SDS011;35135;47.510;19.036;2024-03-02T06:53:45;10.00;;;8.93;;
35324;SDS011;35135;47.510;19.036;2024-03-02T06:56:11;11.45;;;9.55;;
35324;SDS011;35135;47.510;19.036;2024-03-02T06:58:37;9.63;;;8.73;;
35324;SDS011;35135;47.510;19.036;2024-03-02T07:01:03;9.95;;;9.05;;
35324;SDS011;35135;47.510;19.036;2024-03-02T07:03:28;9.90;;;8.98;;
35324;SDS011;35135;47.510;19.036;2024-03-02T07:05:54;9.60;;;8.70;;
35324;SDS011;35135;47.510;19.036;2024-03-02T07:08:20;9.40;;;8.50;;
35324;SDS011;35135;47.510;19.036;2024-03-02T07:10:45;10.25;;;8.93;;
35324;SDS011;35135;47.510;19.036;2024-03-02T07:13:12;9.48;;;8.57;;
35324;SDS011;35135;47.510;19.036;2024-03-02T07:15:38;9.90;;;8.85;;
35324;SDS011;35135;47.510;19.036;2024-03-02T07:18:22;9.43;;;8.52;;
35324;SDS011;35135;47.510;19.036;2024-03-02T07:20:47;9.60;;;8.70;;
35324;SDS011;35135;47.510;19.036;2024-03-02T07:23:14;10.00;;;9.00;;
35324;SDS011;35135;47.510;19.036;2024-03-02T07:25:40;9.32;;;8.43;;
35324;SDS011;35135;47.510;19.036;2024-03-02T07:28:06;10.18;;;9.18;;
35324;SDS011;35135;47.510;19.036;2024-03-02T07:30:32;9.68;;;8.68;;
35324;SDS011;35135;47.510;19.036;2024-03-02T07:32:58;9.93;;;8.93;;
35324;SDS011;35135;47.510;19.036;2024-03-02T07:35:24;9.80;;;8.85;;
35324;SDS011;35135;47.510;19.036;2024-03-02T07:37:53;9.50;;;8.48;;
35324;SDS011;35135;47.510;19.036;2024-03-02T07:40:20;10.05;;;9.05;;
35324;SDS011;35135;47.510;19.036;2024-03-02T07:42:46;9.77;;;8.88;;
35324;SDS011;35135;47.510;19.036;2024-03-02T07:45:12;9.75;;;8.75;;
35324;SDS011;35135;47.510;19.036;2024-03-02T07:47:37;10.32;;;9.02;;
35324;SDS011;35135;47.510;19.036;2024-03-02T07:50:03;10.13;;;9.13;;
35324;SDS011;35135;47.510;19.036;2024-03-02T07:52:31;10.07;;;9.00;;
35324;SDS011;35135;47.510;19.036;2024-03-02T07:54:58;9.60;;;8.70;;
35324;SDS011;35135;47.510;19.036;2024-03-02T07:57:24;9.13;;;8.23;;
35324;SDS011;35135;47.510;19.036;2024-03-02T07:59:50;11.55;;;9.48;;
35324;SDS011;35135;47.510;19.036;2024-03-02T08:02:16;10.55;;;8.93;;
35324;SDS011;35135;47.510;19.036;2024-03-02T08:04:42;11.68;;;9.15;;
35324;SDS011;35135;47.510;19.036;2024-03-02T08:07:08;14.77;;;11.23;;
35324;SDS011;35135;47.510;19.036;2024-03-02T08:09:34;17.63;;;13.52;;
35324;SDS011;35135;47.510;19.036;2024-03-02T08:12:00;17.65;;;15.75;;
35324;SDS011;35135;47.510;19.036;2024-03-02T08:14:26;21.25;;;15.50;;
35324;SDS011;35135;47.510;19.036;2024-03-02T08:16:51;19.42;;;15.32;;
35324;SDS011;35135;47.510;19.036;2024-03-02T08:19:17;20.08;;;17.23;;
35324;SDS011;35135;47.510;19.036;2024-03-02T08:21:43;21.17;;;16.23;;
35324;SDS011;35135;47.510;19.036;2024-03-02T08:24:09;19.50;;;16.10;;
35324;SDS011;35135;47.510;19.036;2024-03-02T08:26:35;20.08;;;14.20;;
35324;SDS011;35135;47.510;19.036;2024-03-02T08:29:01;16.35;;;14.63;;
35324;SDS011;35135;47.510;19.036;2024-03-02T08:31:28;17.23;;;13.32;;
35324;SDS011;35135;47.510;19.036;2024-03-02T08:33:54;15.43;;;13.43;;
35324;SDS011;35135;47.510;19.036;2024-03-02T08:36:20;14.82;;;12.57;;
35324;SDS011;35135;47.510;19.036;2024-03-02T08:38:46;13.63;;;12.00;;
35324;SDS011;35135;47.510;19.036;2024-03-02T08:41:14;14.02;;;12.63;;
35324;SDS011;35135;47.510;19.036;2024-03-02T08:43:41;15.35;;;12.25;;
35324;SDS011;35135;47.510;19.036;2024-03-02T08:46:07;15.35;;;12.10;;
35324;SDS011;35135;47.510;19.036;2024-03-02T08:48:33;14.25;;;12.32;;
35324;SDS011;35135;47.510;19.036;2024-03-02T08:50:59;14.57;;;12.85;;
35324;SDS011;35135;47.510;19.036;2024-03-02T08:53:25;13.88;;;12.40;;
35324;SDS011;35135;47.510;19.036;2024-03-02T08:55:51;14.05;;;12.43;;
35324;SDS011;35135;47.510;19.036;2024-03-02T08:58:17;19.42;;;13.07;;
35324;SDS011;35135;47.510;19.036;2024-03-02T09:00:43;13.68;;;11.85;;
35324;SDS011;35135;47.510;19.036;2024-03-02T09:03:08;14.52;;;12.43;;
35324;SDS011;35135;47.510;19.036;2024-03-02T09:05:35;13.60;;;12.02;;
35324;SDS011;35135;47.510;19.036;2024-03-02T09:08:01;16.00;;;12.32;;
35324;SDS011;35135;47.510;19.036;2024-03-02T09:10:28;14.95;;;10.77;;
35324;SDS011;35135;47.510;19.036;2024-03-02T09:12:54;15.75;;;11.63;;
35324;SDS011;35135;47.510;19.036;2024-03-02T09:15:19;14.27;;;10.85;;
35324;SDS011;35135;47.510;19.036;2024-03-02T09:17:45;12.30;;;10.75;;
35324;SDS011;35135;47.510;19.036;2024-03-02T09:20:11;12.05;;;10.70;;
35324;SDS011;35135;47.510;19.036;2024-03-02T09:22:37;13.82;;;10.95;;
35324;SDS011;35135;47.510;19.036;2024-03-02T09:25:02;13.57;;;10.82;;
35324;SDS011;35135;47.510;19.036;2024-03-02T09:27:28;13.55;;;10.45;;
35324;SDS011;35135;47.510;19.036;2024-03-02T09:29:54;14.95;;;10.90;;
35324;SDS011;35135;47.510;19.036;2024-03-02T09:32:19;12.02;;;10.25;;
35324;SDS011;35135;47.510;19.036;2024-03-02T09:34:45;11.70;;;10.40;;
35324;SDS011;35135;47.510;19.036;2024-03-02T09:37:13;11.55;;;10.27;;
35324;SDS011;35135;47.510;19.036;2024-03-02T09:39:39;11.52;;;10.32;;
35324;SDS011;35135;47.510;19.036;2024-03-02T09:42:05;12.85;;;9.65;;
35324;SDS011;35135;47.510;19.036;2024-03-02T09:44:31;11.68;;;10.27;;
35324;SDS011;35135;47.510;19.036;2024-03-02T09:46:58;11.23;;;9.98;;
35324;SDS011;35135;47.510;19.036;2024-03-02T09:49:23;9.77;;;8.77;;
35324;SDS011;35135;47.510;19.036;2024-03-02T09:51:49;11.10;;;9.73;;
35324;SDS011;35135;47.510;19.036;2024-03-02T09:54:15;11.38;;;9.35;;
35324;SDS011;35135;47.510;19.036;2024-03-02T09:56:41;10.05;;;9.05;;
35324;SDS011;35135;47.510;19.036;2024-03-02T09:59:07;9.88;;;8.88;;
35324;SDS011;35135;47.510;19.036;2024-03-02T10:01:33;11.00;;;9.82;;
35324;SDS011;35135;47.510;19.036;2024-03-02T10:03:59;10.32;;;9.32;;
35324;SDS011;35135;47.510;19.036;2024-03-02T10:06:25;9.45;;;8.48;;
35324;SDS011;35135;47.510;19.036;2024-03-02T10:08:52;9.60;;;8.60;;
35324;SDS011;35135;47.510;19.036;2024-03-02T10:11:29;9.70;;;8.70;;
35324;SDS011;35135;47.510;19.036;2024-03-02T10:14:07;9.07;;;8.27;;
35324;SDS011;35135;47.510;19.036;2024-03-02T10:16:38;11.88;;;9.20;;
35324;SDS011;35135;47.510;19.036;2024-03-02T10:19:14;9.75;;;8.80;;
35324;SDS011;35135;47.510;19.036;2024-03-02T10:21:41;10.15;;;9.15;;
35324;SDS011;35135;47.510;19.036;2024-03-02T10:24:07;8.77;;;7.90;;
35324;SDS011;35135;47.510;19.036;2024-03-02T10:26:33;9.90;;;8.90;;
35324;SDS011;35135;47.510;19.036;2024-03-02T10:28:58;9.23;;;8.32;;
35324;SDS011;35135;47.510;19.036;2024-03-02T10:31:24;8.90;;;8.10;;
35324;SDS011;35135;47.510;19.036;2024-03-02T10:33:54;9.65;;;8.40;;
35324;SDS011;35135;47.510;19.036;2024-03-02T10:36:20;9.55;;;8.63;;
35324;SDS011;35135;47.510;19.036;2024-03-02T10:38:46;7.82;;;7.03;;
35324;SDS011;35135;47.510;19.036;2024-03-02T10:41:16;9.00;;;8.18;;
35324;SDS011;35135;47.510;19.036;2024-03-02T10:43:43;9.25;;;8.35;;
35324;SDS011;35135;47.510;19.036;2024-03-02T10:46:09;8.50;;;7.70;;
35324;SDS011;35135;47.510;19.036;2024-03-02T10:48:36;8.88;;;7.97;;
35324;SDS011;35135;47.510;19.036;2024-03-02T10:51:06;9.32;;;8.43;;
35324;SDS011;35135;47.510;19.036;2024-03-02T10:53:32;11.02;;;8.48;;
35324;SDS011;35135;47.510;19.036;2024-03-02T10:55:58;8.52;;;7.72;;
35324;SDS011;35135;47.510;19.036;2024-03-02T10:58:31;8.05;;;7.25;;
35324;SDS011;35135;47.510;19.036;2024-03-02T11:01:03;8.90;;;8.00;;
35324;SDS011;35135;47.510;19.036;2024-03-02T11:03:31;8.02;;;7.25;;
35324;SDS011;35135;47.510;19.036;2024-03-02T11:06:03;8.57;;;7.78;;
35324;SDS011;35135;47.510;19.036;2024-03-02T11:08:33;8.60;;;7.80;;
35324;SDS011;35135;47.510;19.036;2024-03-02T11:11:05;8.63;;;7.78;;
35324;SDS011;35135;47.510;19.036;2024-03-02T11:13:35;7.18;;;6.47;;
35324;SDS011;35135;47.510;19.036;2024-03-02T11:16:09;8.20;;;7.40;;
35324;SDS011;35135;47.510;19.036;2024-03-02T11:18:45;8.07;;;7.35;;
35324;SDS011;35135;47.510;19.036;2024-03-02T11:21:11;7.85;;;7.10;;
35324;SDS011;35135;47.510;19.036;2024-03-02T11:23:38;7.63;;;6.82;;
35324;SDS011;35135;47.510;19.036;2024-03-02T11:26:17;8.00;;;7.25;;
35324;SDS011;35135;47.510;19.036;2024-03-02T11:28:44;7.63;;;6.82;;
35324;SDS011;35135;47.510;19.036;2024-03-02T11:31:10;7.47;;;6.75;;
35324;SDS011;35135;47.510;19.036;2024-03-02T11:33:35;6.97;;;6.25;;
35324;SDS011;35135;47.510;19.036;2024-03-02T11:36:01;7.88;;;6.57;;
35324;SDS011;35135;47.510;19.036;2024-03-02T11:38:28;7.40;;;6.60;;
35324;SDS011;35135;47.510;19.036;2024-03-02T11:40:54;7.55;;;6.88;;
35324;SDS011;35135;47.510;19.036;2024-03-02T11:43:20;7.72;;;6.75;;
35324;SDS011;35135;47.510;19.036;2024-03-02T11:45:46;8.38;;;6.82;;
35324;SDS011;35135;47.510;19.036;2024-03-02T11:48:15;9.10;;;6.70;;
35324;SDS011;35135;47.510;19.036;2024-03-02T11:50:47;7.20;;;6.32;;
35324;SDS011;35135;47.510;19.036;2024-03-02T11:53:13;8.32;;;6.38;;
35324;SDS011;35135;47.510;19.036;2024-03-02T11:55:40;7.47;;;6.75;;
35324;SDS011;35135;47.510;19.036;2024-03-02T11:58:08;7.00;;;6.30;;
35324;SDS011;35135;47.510;19.036;2024-03-02T12:00:35;7.18;;;6.18;;
35324;SDS011;35135;47.510;19.036;2024-03-02T12:03:01;7.43;;;6.43;;
35324;SDS011;35135;47.510;19.036;2024-03-02T12:05:31;6.50;;;5.90;;
35324;SDS011;35135;47.510;19.036;2024-03-02T12:08:00;8.10;;;5.90;;
35324;SDS011;35135;47.510;19.036;2024-03-02T12:10:27;8.70;;;6.20;;
35324;SDS011;35135;47.510;19.036;2024-03-02T12:12:57;11.77;;;6.72;;
35324;SDS011;35135;47.510;19.036;2024-03-02T12:15:34;7.00;;;5.93;;
35324;SDS011;35135;47.510;19.036;2024-03-02T12:18:04;9.35;;;5.93;;
35324;SDS011;35135;47.510;19.036;2024-03-02T12:20:31;8.45;;;6.68;;
35324;SDS011;35135;47.510;19.036;2024-03-02T12:22:58;7.22;;;6.40;;
35324;SDS011;35135;47.510;19.036;2024-03-02T12:25:25;9.68;;;7.40;;
35324;SDS011;35135;47.510;19.036;2024-03-02T12:27:56;9.55;;;8.55;;
35324;SDS011;35135;47.510;19.036;2024-03-02T12:30:24;9.38;;;8.30;;
35324;SDS011;35135;47.510;19.036;2024-03-02T12:32:51;11.05;;;8.20;;
35324;SDS011;35135;47.510;19.036;2024-03-02T12:35:17;8.80;;;8.00;;
35324;SDS011;35135;47.510;19.036;2024-03-02T12:37:44;12.18;;;8.85;;
35324;SDS011;35135;47.510;19.036;2024-03-02T12:40:11;9.32;;;8.40;;
35324;SDS011;35135;47.510;19.036;2024-03-02T12:42:37;9.48;;;8.48;;
35324;SDS011;35135;47.510;19.036;2024-03-02T12:45:04;10.20;;;8.75;;
35324;SDS011;35135;47.510;19.036;2024-03-02T12:47:31;9.20;;;8.23;;
35324;SDS011;35135;47.510;19.036;2024-03-02T12:49:58;13.57;;;8.65;;
35324;SDS011;35135;47.510;19.036;2024-03-02T12:52:24;9.73;;;8.15;;
35324;SDS011;35135;47.510;19.036;2024-03-02T12:54:50;8.65;;;7.53;;
35324;SDS011;35135;47.510;19.036;2024-03-02T12:57:19;10.45;;;7.90;;
35324;SDS011;35135;47.510;19.036;2024-03-02T12:59:47;9.98;;;8.07;;
35324;SDS011;35135;47.510;19.036;2024-03-02T13:02:16;8.50;;;7.68;;
35324;SDS011;35135;47.510;19.036;2024-03-02T13:04:43;8.88;;;7.78;;
35324;SDS011;35135;47.510;19.036;2024-03-02T13:07:09;9.60;;;8.60;;
35324;SDS011;35135;47.510;19.036;2024-03-02T13:09:39;9.45;;;8.55;;
35324;SDS011;35135;47.510;19.036;2024-03-02T13:12:05;8.77;;;7.88;;
35324;SDS011;35135;47.510;19.036;2024-03-02T13:14:35;9.40;;;7.97;;
35324;SDS011;35135;47.510;19.036;2024-03-02T13:17:01;9.57;;;8.68;;
35324;SDS011;35135;47.510;19.036;2024-03-02T13:19:30;10.60;;;9.50;;
35324;SDS011;35135;47.510;19.036;2024-03-02T13:21:56;11.95;;;10.75;;
35324;SDS011;35135;47.510;19.036;2024-03-02T13:24:26;13.43;;;12.30;;
35324;SDS011;35135;47.510;19.036;2024-03-02T13:26:54;15.88;;;14.38;;
35324;SDS011;35135;47.510;19.036;2024-03-02T13:29:22;27.20;;;24.52;;
35324;SDS011;35135;47.510;19.036;2024-03-02T13:31:47;25.35;;;22.98;;
35324;SDS011;35135;47.510;19.036;2024-03-02T13:34:13;25.52;;;23.05;;
35324;SDS011;35135;47.510;19.036;2024-03-02T13:36:39;25.05;;;22.80;;
35324;SDS011;35135;47.510;19.036;2024-03-02T13:39:05;26.10;;;23.67;;
35324;SDS011;35135;47.510;19.036;2024-03-02T13:41:33;31.15;;;28.25;;
35324;SDS011;35135;47.510;19.036;2024-03-02T13:43:59;28.38;;;25.58;;
35324;SDS011;35135;47.510;19.036;2024-03-02T13:46:26;22.17;;;19.98;;
35324;SDS011;35135;47.510;19.036;2024-03-02T13:48:52;25.60;;;21.20;;
35324;SDS011;35135;47.510;19.036;2024-03-02T13:51:19;23.52;;;18.10;;
35324;SDS011;35135;47.510;19.036;2024-03-02T13:53:44;21.25;;;18.63;;
35324;SDS011;35135;47.510;19.036;2024-03-02T13:56:10;26.58;;;18.33;;
35324;SDS011;35135;47.510;19.036;2024-03-02T13:58:36;38.05;;;18.23;;
35324;SDS011;35135;47.510;19.036;2024-03-02T14:01:02;24.35;;;16.10;;
35324;SDS011;35135;47.510;19.036;2024-03-02T14:03:29;27.55;;;17.73;;
35324;SDS011;35135;47.510;19.036;2024-03-02T14:05:55;24.13;;;15.52;;
35324;SDS011;35135;47.510;19.036;2024-03-02T14:08:21;21.02;;;15.30;;
35324;SDS011;35135;47.510;19.036;2024-03-02T14:10:47;24.00;;;15.18;;
35324;SDS011;35135;47.510;19.036;2024-03-02T14:13:12;22.70;;;14.82;;
35324;SDS011;35135;47.510;19.036;2024-03-02T14:15:38;20.98;;;14.57;;
35324;SDS011;35135;47.510;19.036;2024-03-02T14:18:05;17.60;;;13.77;;
35324;SDS011;35135;47.510;19.036;2024-03-02T14:20:31;17.98;;;14.38;;
35324;SDS011;35135;47.510;19.036;2024-03-02T14:22:57;21.27;;;14.65;;